Thursday, November 15, 2018, 2:25 AM GMT
Back to Local

CWIP, Pointe Noire , Que.

Location: , , Canada Lat: 50.167
Local Time: 2:25 AM GMT ( 2:25 GMT) Lon: -66.433
Time Zone: GMT Elev: 82 ft

Show me the last for .
Show Coded

Time T Td Feel RH Dir Speed Gust Alt SLP Vis Weather Sky Remarks
2018-11-15 02:00 20 - 1 0 310° 17 30 - - 0 Peak wind: 34 mph (30 kts) from 300° at 14 min
2018-11-15 01:00 20 - 1 0 320° 18 30 - - 0 Peak wind: 37 mph (33 kts) from 320° at 26 min
2018-11-15 00:00 21 - 1 0 310° 22 38 - - 0 Peak wind: 37 mph (33 kts) from 290° at 58 min
2018-11-14 23:00 22 - 4 0 310° 18 30 - - 0 Peak wind: 37 mph (33 kts) from 310° at 00 min
2018-11-14 22:00 21 - 2 0 310° 23 35 - - 0 Peak wind: 37 mph (33 kts) from 320° at 35 min
2018-11-14 21:00 21 - 2 0 320° 23 36 - - 0 Peak wind: 39 mph (34 kts) from 320° at 17 min
2018-11-14 20:00 21 - 2 0 320° 23 36 - - 0 Peak wind: 39 mph (34 kts) from 280° at 07 min
2018-11-14 19:00 21 - 0 0 320° 25 41 - - 0 Peak wind: 41 mph (36 kts) from 300° at 13 min
2018-11-14 18:00 21 - 0 0 320° 23 41 - - 0 Peak wind: 41 mph (36 kts) from 290° at 56 min
2018-11-14 17:00 21 - 3 0 320° 21 30 - - 0 Peak wind: 34 mph (30 kts) from 320° at 04 min
2018-11-14 16:00 22 - 4 0 310° 20 29 - - 0 Peak wind: 35 mph (31 kts) from 320° at 06 min
2018-11-14 15:00 22 - 4 0 310° 22 33 - - 0 Peak wind: 33 mph (29 kts) from 300° at 55 min
2018-11-14 14:00 23 - 4 0 300° 23 35 - - 0 Peak wind: 39 mph (34 kts) from 300° at 16 min
2018-11-14 13:00 25 - 7 0 310° 22 33 - - 0 Peak wind: 33 mph (29 kts) from 300° at 58 min
2018-11-14 12:00 27 - 17 0 300° 12 - - - 0 Peak wind: 19 mph (17 kts) from 320° at 38 min
2018-11-14 11:00 28 - 15 0 330° 12 18 - - 0 Peak wind: 19 mph (17 kts) from 330° at 09 min
2018-11-14 10:00 28 - 20 0 330° 9 - - - 0 None
2018-11-14 09:00 28 - 19 0 20° 9 - - - 0 None
2018-11-14 08:00 28 - 19 0 50° 9 - - - 0 None
2018-11-14 07:00 29 - 16 0 60° 12 18 - - 0 Peak wind: 23 mph (20 kts) from 60° at 09 min
2018-11-14 06:00 29 - 16 0 70° 13 22 - - 0 Peak wind: 24 mph (21 kts) from 60° at 10 min
2018-11-14 05:00 29 - 16 0 60° 12 21 - - 0 Peak wind: 21 mph (19 kts) from 80° at 12 min
2018-11-14 04:00 29 - 17 0 70° 10 18 - - 0 Peak wind: 21 mph (19 kts) from 80° at 03 min
2018-11-14 03:00 31 - 18 0 80° 13 21 - - 0 Peak wind: 21 mph (19 kts) from 70° at 22 min

Support USWX by starting your Amazon purchase here.